[source: ADDS]
METAR
EDMA 241050Z 09006KT 050V110 CAVOK 19/08 Q1018 RMK ATIS DEL =
TAF
TAF EDMA 240800Z 2409/2418 06006KT 9999 FEW040 =
SR / SS: 04:10 / 18:23 UTC (Referenz EDMA 2014-04-24)
Start

PostHeaderIcon Fliegergruppe Giengen / Brenz e.V.

Hallo und herzlich Willkommen auf unserer Vereins Web-Seite.

Unser am Rande des schönen Albtraufs gelegener Platz eignet sich mit seiner 480m langen Asphaltpiste und den beiden sehr gepflegten Graspisten für ganzjährige Flüge im süddeutschen Luftraum. Die Schwäbsche Alb, das  wunderschöne Allgäu sowie ein Ausflug über die Bayerischen- und Württembergischen Königsschlösser einschließlich dem Alpen und Bodenseeraum laden geradezu ein, bei uns eine Zwischenlandung einzulegen.

Um den Flugplatz herum gibt es viele schöne Wanderwege, besuchen Sie die "Hauptstadt der Teddybären" und das "Margarete Steiff Museum" in Giengen.

Jedes Jahr im April findet unser großer Erlebnistag statt. Einen Zeitungsbericht mit Bildern findet ihr unter: Südwestpresse

 

 

PostHeaderIcon Termine 2014


Großer Erlebnistag am 27.04.2014 ab 10:30 auf der Irpfel



WebCam Vorfeld Blickrichtung Westen: